Time;durP1;ratioP1;P1;durP2;ratioP2;P2;SDS_P1;SDS_P2;PMS_P1;PMS_P2;Temp;Humidity;BMP_temperature;BMP_pressure;BME280_temperature;BME280_humidity;BME280_pressure;Samples;Min_cycle;Max_cycle;Signal;HPM_P1;HPM_P2
2021/12/10 00:04:53;;;;;;;21.27;10.27;;;;;;;0.64;100.00;97257.88;12861726;23;20024;-77
2021/12/10 00:10:03;;;;;;;22.13;11.05;;;;;;;0.69;100.00;97252.53;12856262;23;20135;-77
2021/12/10 00:15:06;;;;;;;18.42;9.30;;;;;;;0.73;100.00;97245.63;12902687;23;20025;-79
2021/12/10 00:20:08;;;;;;;17.83;9.55;;;;;;;0.68;100.00;97246.47;12870217;23;20066;-78
2021/12/10 00:25:18;;;;;;;21.93;9.83;;;;;;;0.74;100.00;97234.78;12861503;23;20017;-78
2021/12/10 00:30:32;;;;;;;19.58;9.73;;;;;;;0.76;100.00;97224.72;12854062;23;20016;-77
2021/12/10 00:35:33;;;;;;;18.67;10.27;;;;;;;0.66;100.00;97216.94;12887581;23;20433;-77
2021/12/10 00:40:33;;;;;;;17.98;10.15;;;;;;;0.66;100.00;97208.22;12894848;23;20013;-78
2021/12/10 00:45:34;;;;;;;20.30;10.48;;;;;;;0.68;100.00;97204.22;12881326;23;20123;-78
2021/12/10 00:50:50;;;;;;;21.45;9.70;;;;;;;0.64;100.00;97192.69;12804833;23;20017;-77
2021/12/10 00:55:51;;;;;;;17.13;10.27;;;;;;;0.64;100.00;97178.66;12824465;23;20452;-77
2021/12/10 01:00:56;;;;;;;20.52;10.25;;;;;;;0.67;100.00;97173.63;12851450;23;20020;-78
2021/12/10 01:06:01;;;;;;;18.38;9.93;;;;;;;0.63;100.00;97169.97;12851822;23;20056;-78
2021/12/10 01:11:15;;;;;;;17.70;9.40;;;;;;;0.65;100.00;97165.22;12852838;23;20019;-79
2021/12/10 01:31:51;;;;;;;18.70;9.82;;;;;;;0.59;100.00;97136.50;12849228;23;20016;-78
2021/12/10 01:36:52;;;;;;;;;;;;;;;0.60;100.00;97136.22;12859834;23;20428;-77
2021/12/10 01:42:01;;;;;;;15.23;8.55;;;;;;;0.67;100.00;97120.03;12860651;23;19942;-78
2021/12/10 01:47:06;;;;;;;17.45;8.45;;;;;;;0.58;100.00;97101.41;12856109;23;20022;-77
2021/12/10 01:52:07;;;;;;;13.35;8.18;;;;;;;0.55;100.00;97092.22;12849775;23;20008;-78
2021/12/10 01:57:10;;;;;;;19.70;8.88;;;;;;;0.59;100.00;97097.69;12851104;23;20020;-79
2021/12/10 02:02:20;;;;;;;12.13;7.13;;;;;;;0.65;100.00;97093.13;12855446;23;20044;-78
2021/12/10 02:07:26;;;;;;;14.50;7.90;;;;;;;0.61;100.00;97071.78;12857311;23;20094;-77
2021/12/10 02:12:29;;;;;;;14.18;7.30;;;;;;;0.54;100.00;97055.53;12832066;23;20013;-77
2021/12/10 02:17:34;;;;;;;15.30;7.68;;;;;;;0.50;100.00;97051.91;12833919;23;20028;-78
2021/12/10 02:22:37;;;;;;;10.60;7.50;;;;;;;0.52;100.00;97039.97;12862517;23;20005;-78
2021/12/10 02:27:38;;;;;;;11.52;6.80;;;;;;;0.54;100.00;97042.31;12858736;23;20021;-78
2021/12/10 02:32:38;;;;;;;14.63;7.22;;;;;;;0.56;100.00;97019.84;12858185;23;20044;-79
2021/12/10 02:37:41;;;;;;;12.57;7.40;;;;;;;0.59;100.00;97018.50;12859391;23;20017;-79
2021/12/10 02:42:43;;;;;;;15.07;7.40;;;;;;;0.59;100.00;97015.06;12863319;23;20048;-78
2021/12/10 02:47:45;;;;;;;12.43;7.28;;;;;;;0.63;100.00;97002.84;12830187;23;20773;-79
2021/12/10 02:52:46;;;;;;;14.35;7.05;;;;;;;0.66;100.00;97000.44;12829197;23;20369;-78
2021/12/10 02:57:51;;;;;;;10.63;6.68;;;;;;;0.72;100.00;96995.81;12891958;23;20021;-79
2021/12/10 03:02:52;;;;;;;9.65;7.20;;;;;;;0.69;100.00;96985.84;12877089;23;20025;-78
2021/12/10 03:07:56;;;;;;;12.07;6.60;;;;;;;0.61;100.00;96982.03;12857863;23;20123;-80
2021/12/10 03:12:58;;;;;;;10.82;6.47;;;;;;;0.63;100.00;96977.22;12862547;23;20023;-79
2021/12/10 03:18:05;;;;;;;13.65;6.30;;;;;;;0.65;100.00;96974.31;12859155;23;20040;-78
2021/12/10 03:23:06;;;;;;;11.85;6.38;;;;;;;0.68;100.00;96960.53;12858935;23;20027;-80
2021/12/10 03:28:08;;;;;;;12.93;5.95;;;;;;;0.66;100.00;96952.91;12851860;23;20036;-79
2021/12/10 03:33:09;;;;;;;8.77;5.80;;;;;;;0.59;100.00;96941.94;12857882;23;20720;-77
2021/12/10 03:38:14;;;;;;;8.60;5.15;;;;;;;0.65;100.00;96930.22;12859345;23;20017;-78
2021/12/10 03:43:17;;;;;;;9.35;5.40;;;;;;;0.67;100.00;96933.34;12858948;23;20051;-79
2021/12/10 03:48:25;;;;;;;11.07;5.55;;;;;;;0.81;100.00;96920.13;12881428;23;20032;-79
2021/12/10 03:53:27;;;;;;;10.10;6.30;;;;;;;0.90;100.00;96909.69;12859195;23;20066;-79
2021/12/10 03:58:27;;;;;;;12.13;6.10;;;;;;;0.99;100.00;96902.63;12815512;23;20025;-79
2021/12/10 04:03:30;;;;;;;11.68;6.47;;;;;;;0.84;100.00;96901.88;12862406;23;20095;-78
2021/12/10 04:08:32;;;;;;;8.68;5.28;;;;;;;0.85;100.00;96900.00;12837754;23;20534;-80
2021/12/10 04:13:35;;;;;;;7.47;5.55;;;;;;;0.71;100.00;96902.63;12874249;23;20028;-79
2021/12/10 04:18:37;;;;;;;10.80;5.57;;;;;;;0.73;100.00;96903.13;12888732;23;20008;-78
2021/12/10 04:23:41;;;;;;;10.20;6.00;;;;;;;0.66;100.00;96896.69;12867080;23;20054;-78
2021/12/10 04:28:42;;;;;;;12.60;6.43;;;;;;;0.60;100.00;96888.06;12873624;23;20036;-79
2021/12/10 04:33:44;;;;;;;13.60;7.25;;;;;;;0.63;100.00;96884.81;12840258;23;20024;-82
2021/12/10 04:38:46;;;;;;;17.05;7.20;;;;;;;0.57;100.00;96876.22;12832036;23;20020;-81
2021/12/10 04:43:47;;;;;;;18.77;8.60;;;;;;;0.63;100.00;96866.34;12840388;23;20044;-80
2021/12/10 04:48:57;;;;;;;14.77;7.60;;;;;;;0.71;100.00;96864.88;12847766;23;20093;-77
2021/12/10 04:54:01;;;;;;;18.48;8.60;;;;;;;0.57;100.00;96867.53;12851745;23;20029;-79
2021/12/10 04:59:04;;;;;;;15.93;9.30;;;;;;;0.49;100.00;96861.06;12844111;23;20084;-78
2021/12/10 05:04:08;;;;;;;14.63;8.75;;;;;;;0.52;100.00;96857.84;12878796;23;20027;-81
2021/12/10 05:09:11;;;;;;;19.08;10.48;;;;;;;0.58;100.00;96850.63;12881143;23;20021;-79
2021/12/10 05:14:13;;;;;;;19.80;9.88;;;;;;;0.67;100.00;96845.44;12847586;23;20064;-79
2021/12/10 05:19:21;;;;;;;15.48;9.32;;;;;;;0.43;100.00;96841.13;12834881;23;20039;-79
2021/12/10 05:24:23;;;;;;;14.30;9.48;;;;;;;0.25;100.00;96829.56;12834020;23;20019;-81
2021/12/10 05:29:24;;;;;;;17.83;10.23;;;;;;;0.13;100.00;96808.16;12843000;23;20099;-78
2021/12/10 05:34:25;;;;;;;19.35;10.43;;;;;;;0.02;100.00;96787.53;12811475;23;20025;-78
2021/12/10 05:39:26;;;;;;;21.40;10.23;;;;;;;-0.19;100.00;96795.78;12840261;23;20005;-80
2021/12/10 05:44:27;;;;;;;18.08;10.00;;;;;;;-0.29;100.00;96802.00;12907626;23;20059;-79
2021/12/10 05:49:28;;;;;;;20.17;10.77;;;;;;;-0.34;100.00;96796.03;12835221;23;20031;-78
2021/12/10 05:54:35;;;;;;;21.35;10.40;;;;;;;-0.48;100.00;96789.94;12818468;23;20027;-79
2021/12/10 05:59:39;;;;;;;21.50;11.55;;;;;;;-0.55;100.00;96779.75;12848447;23;20040;-81
2021/12/10 06:04:42;;;;;;;22.48;11.65;;;;;;;-0.68;100.00;96781.28;12898518;23;20016;-81
2021/12/10 06:09:44;;;;;;;19.23;10.35;;;;;;;-0.77;100.00;96769.81;12850616;23;20029;-82
2021/12/10 06:14:45;;;;;;;28.27;13.00;;;;;;;-0.86;100.00;96769.69;12904144;23;20054;-81
2021/12/10 06:19:49;;;;;;;33.33;14.77;;;;;;;-0.74;100.00;96761.34;12903542;23;20068;-80
2021/12/10 06:24:49;;;;;;;;;;;;;;;-0.75;100.00;96753.72;12847401;23;20021;-79
2021/12/10 06:29:51;;;;;;;36.53;16.65;;;;;;;-0.91;100.00;96740.81;12889221;23;19931;-83
2021/12/10 06:34:57;;;;;;;32.90;16.40;;;;;;;-1.03;100.00;96724.66;12816461;23;20024;-79
2021/12/10 06:39:59;;;;;;;37.92;17.10;;;;;;;-1.09;100.00;96720.53;12843033;23;20009;-79
2021/12/10 06:44:59;;;;;;;41.78;16.35;;;;;;;-1.14;100.00;96715.34;12824050;23;20020;-81
2021/12/10 06:50:23;;;;;;;33.97;16.40;;;;;;;-1.11;100.00;96706.88;12847956;23;20397;-80
2021/12/10 06:55:29;;;;;;;41.40;17.73;;;;;;;-1.09;100.00;96714.50;12787081;23;20072;-81
2021/12/10 07:00:32;;;;;;;49.25;18.30;;;;;;;-1.17;100.00;96697.50;12837140;23;20099;-80
2021/12/10 07:05:34;;;;;;;41.13;17.33;;;;;;;-1.21;100.00;96696.47;12788679;23;20029;-80
2021/12/10 07:10:37;;;;;;;48.88;19.80;;;;;;;-1.20;100.00;96695.41;12784152;23;20009;-79
2021/12/10 07:15:41;;;;;;;47.75;19.13;;;;;;;-1.27;100.00;96692.38;12786400;23;20021;-78
2021/12/10 07:20:43;;;;;;;41.63;17.75;;;;;;;-1.26;100.00;96689.47;12814234;23;20134;-78
2021/12/10 07:25:47;;;;;;;50.25;19.65;;;;;;;-1.18;100.00;96680.91;12790637;23;20021;-81
2021/12/10 07:30:50;;;;;;;49.13;19.20;;;;;;;-1.01;100.00;96666.44;12819241;23;20390;-80
2021/12/10 07:36:25;;;;;;;56.03;21.42;;;;;;;-0.85;100.00;96673.03;12810830;23;20025;-78
2021/12/10 07:41:30;;;;;;;47.75;19.45;;;;;;;-0.83;100.00;96670.09;12791980;23;20090;-80
2021/12/10 07:46:32;;;;;;;49.70;20.30;;;;;;;-0.75;100.00;96658.91;12790281;23;20028;-79
2021/12/10 07:51:44;;;;;;;50.40;20.70;;;;;;;-0.72;100.00;96667.03;12814727;23;20027;-78
2021/12/10 07:56:54;;;;;;;43.30;18.33;;;;;;;-0.61;100.00;96662.38;12771863;23;20091;-79
2021/12/10 08:01:55;;;;;;;40.05;17.17;;;;;;;-0.55;100.00;96649.88;12816451;23;20013;-79
2021/12/10 08:06:58;;;;;;;37.63;15.60;;;;;;;-0.51;100.00;96640.31;12809134;23;20119;-80
2021/12/10 08:11:59;;;;;;;36.47;17.43;;;;;;;-0.40;100.00;96631.94;12799077;23;20020;-81
2021/12/10 08:17:02;;;;;;;33.03;15.02;;;;;;;-0.36;100.00;96621.59;12816948;23;20244;-79
2021/12/10 08:22:06;;;;;;;30.60;13.93;;;;;;;-0.33;100.00;96624.41;12803458;23;20023;-80
2021/12/10 08:27:08;;;;;;;34.70;15.30;;;;;;;-0.25;100.00;96616.91;12837072;23;20005;-82
2021/12/10 08:32:13;;;;;;;29.27;13.73;;;;;;;-0.24;100.00;96613.19;12872848;23;20035;-80
2021/12/10 08:37:14;;;;;;;27.70;13.93;;;;;;;-0.11;100.00;96612.41;12820758;23;20067;-82
2021/12/10 08:42:29;;;;;;;28.90;12.93;;;;;;;-0.13;100.00;96598.72;12816997;23;20036;-84
2021/12/10 08:47:57;;;;;;;27.85;14.07;;;;;;;0.04;100.00;96590.22;12789646;23;20120;-82
2021/12/10 08:53:01;;;;;;;25.85;12.57;;;;;;;0.15;100.00;96584.41;12772058;23;20025;-79
2021/12/10 08:58:11;;;;;;;28.48;13.65;;;;;;;0.15;100.00;96567.81;12804395;23;20005;-83
2021/12/10 09:03:35;;;;;;;;;;;;;;;;;;;;;
2021/12/10 09:09:12;;;;;;;26.08;12.63;;;;;;;0.36;100.00;96557.56;12834302;23;20131;-80
2021/12/10 09:14:30;;;;;;;22.65;11.80;;;;;;;0.51;100.00;96557.22;12821633;23;20024;-79
2021/12/10 09:19:39;;;;;;;20.93;10.43;;;;;;;0.44;100.00;96544.44;12803172;23;20131;-81
2021/12/10 09:25:08;;;;;;;21.15;10.57;;;;;;;0.48;100.00;96542.00;12804289;23;20016;-80
2021/12/10 09:30:12;;;;;;;21.50;11.10;;;;;;;0.62;100.00;96529.50;12800236;23;20425;-81
2021/12/10 09:35:40;;;;;;;18.10;9.60;;;;;;;0.63;100.00;96522.38;12799469;23;20017;-83
2021/12/10 09:41:02;;;;;;;17.10;9.50;;;;;;;0.63;100.00;96520.50;12781162;23;20104;-80
2021/12/10 09:46:09;;;;;;;22.83;12.23;;;;;;;0.76;100.00;96503.81;12834444;23;20041;-82
2021/12/10 09:51:39;;;;;;;20.85;9.93;;;;;;;0.97;100.00;96488.22;12803740;23;20015;-80
2021/12/10 09:56:50;;;;;;;15.85;10.05;;;;;;;0.88;100.00;96473.44;12813140;23;20036;-81
2021/12/10 10:01:59;;;;;;;21.08;10.80;;;;;;;0.95;100.00;96468.50;12801761;23;20083;-79
2021/12/10 10:07:12;;;;;;;22.63;10.93;;;;;;;1.10;100.00;96449.59;12884273;23;20013;-79
2021/12/10 10:12:23;;;;;;;19.23;10.30;;;;;;;1.02;100.00;96443.19;12887687;23;20120;-80
2021/12/10 10:17:42;;;;;;;18.98;9.07;;;;;;;1.08;100.00;96420.81;12868303;23;20028;-81
2021/12/10 10:22:52;;;;;;;15.85;9.48;;;;;;;1.29;100.00;96415.75;12871515;23;20032;-81
2021/12/10 10:28:04;;;;;;;;;;;;;;;;;;;;;
2021/12/10 10:34:00;;;;;;;14.00;7.65;;;;;;;1.23;100.00;96403.78;12897535;23;20047;-79
2021/12/10 10:39:14;;;;;;;12.05;6.95;;;;;;;1.25;100.00;96387.59;12895810;23;20013;-79
2021/12/10 10:44:22;;;;;;;13.85;6.82;;;;;;;1.61;100.00;96382.03;12894186;23;20029;-80
2021/12/10 10:49:53;;;;;;;13.18;6.75;;;;;;;1.74;100.00;96365.25;12908654;23;20031;-81
2021/12/10 10:55:34;;;;;;;13.35;7.13;;;;;;;1.89;100.00;96377.97;12830334;23;20008;-81
2021/12/10 11:01:07;;;;;;;13.23;6.28;;;;;;;1.93;100.00;96378.91;12883137;23;20020;-80
2021/12/10 11:06:30;;;;;;;11.55;6.20;;;;;;;2.07;100.00;96391.19;12838497;23;20008;-80
2021/12/10 11:11:41;;;;;;;8.07;5.53;;;;;;;2.00;100.00;96387.13;12816557;23;20033;-82
2021/12/10 11:16:53;;;;;;;9.25;5.10;;;;;;;2.20;100.00;96384.94;12814200;23;20376;-78
2021/12/10 11:22:10;;;;;;;9.75;5.18;;;;;;;2.22;100.00;96378.25;12819442;23;20013;-81
2021/12/10 11:27:17;;;;;;;10.55;4.97;;;;;;;2.00;100.00;96381.84;12797380;23;20048;-79
2021/12/10 11:32:33;;;;;;;10.70;4.70;;;;;;;2.07;100.00;96372.66;12793271;23;20044;-79
2021/12/10 11:37:54;;;;;;;6.82;4.32;;;;;;;2.05;100.00;96366.91;12834389;23;20065;-79
2021/12/10 11:43:06;;;;;;;5.60;3.70;;;;;;;1.86;100.00;96365.38;12791806;23;20021;-79
2021/12/10 11:48:24;;;;;;;6.47;4.20;;;;;;;1.78;100.00;96363.53;12785622;23;20096;-79
2021/12/10 11:53:35;;;;;;;7.18;3.63;;;;;;;2.03;100.00;96361.94;12815893;23;20068;-78
2021/12/10 11:58:37;;;;;;;8.43;4.25;;;;;;;2.12;100.00;96359.28;12818726;23;20019;-79
2021/12/10 12:03:43;;;;;;;5.95;3.58;;;;;;;2.08;100.00;96359.13;12787187;23;20120;-80
2021/12/10 12:08:51;;;;;;;6.30;3.70;;;;;;;2.16;100.00;96353.03;12792139;23;20021;-82
2021/12/10 12:13:57;;;;;;;5.88;3.50;;;;;;;2.06;100.00;96339.38;12815745;23;20020;-79
2021/12/10 12:19:03;;;;;;;4.38;2.95;;;;;;;2.30;100.00;96334.31;12816213;23;20479;-79
2021/12/10 12:29:55;;;;;;;6.18;3.28;;;;;;;2.09;100.00;96338.72;12834274;23;20051;-80
2021/12/10 12:34:56;;;;;;;7.10;3.10;;;;;;;1.89;100.00;96334.88;12803263;23;20028;-84
2021/12/10 12:40:02;;;;;;;6.55;3.30;;;;;;;2.01;100.00;96321.78;12807509;23;20027;-80
2021/12/10 12:45:17;;;;;;;7.82;3.80;;;;;;;1.98;100.00;96311.84;12804770;23;20039;-82
2021/12/10 12:50:25;;;;;;;6.43;3.40;;;;;;;1.91;100.00;96314.94;12825303;23;20024;-83
2021/12/10 12:55:59;;;;;;;7.13;3.90;;;;;;;1.84;100.00;96322.63;12787251;23;20032;-83
2021/12/10 13:01:40;;;;;;;7.70;3.58;;;;;;;1.79;100.00;96320.13;12814022;23;20028;-85
2021/12/10 13:07:36;;;;;;;8.20;3.92;;;;;;;1.97;100.00;96332.22;12810724;23;20025;-85
2021/12/10 13:13:07;;;;;;;6.88;3.25;;;;;;;1.97;100.00;96332.22;12810367;23;20730;-81
2021/12/10 13:18:08;;;;;;;6.40;4.10;;;;;;;1.86;100.00;96327.59;12796235;23;20004;-83
2021/12/10 13:23:16;;;;;;;6.47;3.70;;;;;;;1.94;100.00;96329.44;12795931;23;20045;-83
2021/12/10 13:29:06;;;;;;;5.50;3.72;;;;;;;1.86;100.00;96317.00;12824700;23;20035;-83
2021/12/10 13:34:18;;;;;;;6.82;3.72;;;;;;;1.87;100.00;96318.56;12719750;23;20064;-82
2021/12/10 13:39:26;;;;;;;6.65;4.13;;;;;;;1.86;100.00;96317.78;12827686;23;20041;-81
2021/12/10 13:44:43;;;;;;;5.40;3.47;;;;;;;1.73;100.00;96321.34;12832445;23;20089;-85
2021/12/10 13:50:52;;;;;;;6.95;3.97;;;;;;;1.58;100.00;96311.28;12840895;23;20017;-81
2021/12/10 13:56:08;;;;;;;6.30;3.75;;;;;;;1.55;100.00;96310.03;12848937;23;20028;-84
2021/12/10 14:01:36;;;;;;;9.38;4.05;;;;;;;1.60;100.00;96311.75;12831480;23;20091;-81
2021/12/10 14:07:03;;;;;;;9.48;4.47;;;;;;;1.42;100.00;96303.06;12828334;23;20025;-84
2021/12/10 14:12:37;;;;;;;6.05;3.75;;;;;;;1.32;100.00;96304.16;12803142;23;20027;-83
2021/12/10 14:18:25;;;;;;;7.15;4.32;;;;;;;1.27;100.00;96309.56;12808652;23;20024;-83
2021/12/10 14:23:44;;;;;;;6.50;3.72;;;;;;;1.20;100.00;96327.00;12831660;23;20024;-82
2021/12/10 14:29:17;;;;;;;8.25;4.80;;;;;;;1.23;100.00;96350.16;12793172;23;20025;-84
2021/12/10 14:35:19;;;;;;;6.35;4.35;;;;;;;1.16;100.00;96347.97;12834667;23;20009;-82
2021/12/10 14:40:53;;;;;;;7.60;5.25;;;;;;;1.03;100.00;96352.31;12838109;23;20017;-82
2021/12/10 14:46:14;;;;;;;8.27;4.07;;;;;;;0.94;100.00;96356.00;12816112;23;20047;-86
2021/12/10 14:52:27;;;;;;;6.50;4.20;;;;;;;0.91;100.00;96353.97;12834714;23;20016;-85
2021/12/10 14:58:27;;;;;;;;;;;;;;;0.82;100.00;96356.59;12833755;23;20020;-84
2021/12/10 15:03:52;;;;;;;9.77;5.72;;;;;;;0.71;100.00;96358.72;12634860;23;19924;-86
2021/12/10 15:09:14;;;;;;;11.50;5.30;;;;;;;0.64;100.00;96361.06;12715939;23;20033;-86
2021/12/10 15:14:34;;;;;;;10.25;5.45;;;;;;;0.55;100.00;96373.44;12826535;23;20013;-85
2021/12/10 15:31:00;;;;;;;11.77;5.72;;;;;;;0.59;100.00;96390.22;12792800;23;20018;-84
2021/12/10 15:36:25;;;;;;;11.68;6.20;;;;;;;0.57;100.00;96389.75;12742762;23;20025;-82
2021/12/10 15:41:55;;;;;;;11.88;6.85;;;;;;;0.55;100.00;96394.56;12790569;23;20065;-84
2021/12/10 15:47:43;;;;;;;18.00;9.82;;;;;;;0.51;100.00;96394.38;12789542;23;20005;-82
2021/12/10 15:53:22;;;;;;;9.25;6.13;;;;;;;0.49;100.00;96398.41;12759756;23;20033;-84
2021/12/10 15:59:27;;;;;;;13.95;5.65;;;;;;;0.50;100.00;96399.97;12781195;23;20057;-86
2021/12/10 16:04:48;;;;;;;9.27;5.38;;;;;;;0.51;100.00;96402.28;12775030;23;20064;-85
2021/12/10 16:10:50;;;;;;;8.13;4.97;;;;;;;0.54;100.00;96414.09;12815535;23;20040;-83
2021/12/10 16:17:05;;;;;;;13.40;5.88;;;;;;;0.45;100.00;96418.56;12845243;23;20021;-85
2021/12/10 16:33:07;;;;;;;9.63;5.75;;;;;;;0.53;100.00;96433.66;12793690;23;20029;-82
2021/12/10 16:38:48;;;;;;;9.13;4.32;;;;;;;0.48;100.00;96445.13;12789259;23;20028;-84
2021/12/10 16:44:13;;;;;;;8.27;4.47;;;;;;;0.48;100.00;96439.84;12741808;23;20012;-84
2021/12/10 16:50:16;;;;;;;10.50;6.13;;;;;;;0.51;100.00;96454.31;12793762;23;20016;-83
2021/12/10 16:56:29;;;;;;;8.68;5.13;;;;;;;0.51;100.00;96459.59;12656972;23;20074;-84
2021/12/10 17:02:29;;;;;;;9.13;5.32;;;;;;;0.59;100.00;96471.28;12662913;23;20006;-84
2021/12/10 17:08:24;;;;;;;8.43;5.63;;;;;;;0.47;100.00;96469.19;12704760;23;20055;-82
2021/12/10 17:14:34;;;;;;;11.77;6.30;;;;;;;0.51;100.00;96476.19;12780195;23;20021;-82
2021/12/10 17:20:45;;;;;;;8.00;5.63;;;;;;;0.51;100.00;96476.19;12760573;23;20454;-82
2021/12/10 17:26:35;;;;;;;14.38;5.82;;;;;;;0.53;100.00;96484.59;12754140;23;20355;-82
2021/12/10 17:31:46;;;;;;;10.07;5.50;;;;;;;0.49;100.00;96488.13;12774182;23;20136;-84
2021/12/10 17:37:02;;;;;;;12.52;6.22;;;;;;;0.54;100.00;96498.56;12735678;23;20025;-82
2021/12/10 17:42:09;;;;;;;14.27;7.65;;;;;;;0.51;100.00;96507.09;12748714;23;20095;-84
2021/12/10 17:47:35;;;;;;;10.85;6.55;;;;;;;0.53;100.00;96513.63;12733660;23;20018;-82
2021/12/10 17:52:58;;;;;;;12.63;6.85;;;;;;;0.51;100.00;96522.91;12725970;23;20019;-84
2021/12/10 17:58:23;;;;;;;13.82;6.70;;;;;;;0.54;100.00;96527.59;12772045;23;20017;-83
2021/12/10 18:03:56;;;;;;;10.77;6.93;;;;;;;0.49;100.00;96533.00;12778357;23;20044;-82
2021/12/10 18:09:19;;;;;;;13.32;6.82;;;;;;;0.42;100.00;96546.63;12766287;23;20013;-82
2021/12/10 18:14:35;;;;;;;11.15;6.75;;;;;;;0.39;100.00;96555.13;12754008;23;20029;-81
2021/12/10 18:19:41;;;;;;;13.68;7.13;;;;;;;0.30;100.00;96564.84;12719399;23;20021;-85
2021/12/10 18:43:20;;;;;;;;;;;;;;;;;;;;;
2021/12/10 18:56:25;;;;;;;14.18;9.95;;;;;;;0.04;100.00;96606.03;12790546;23;20025;-83
2021/12/10 19:07:31;;;;;;;17.77;10.93;;;;;;;0.06;100.00;96632.88;12764760;23;20022;-83
2021/12/10 19:13:48;;;;;;;18.40;11.13;;;;;;;0.18;100.00;96638.44;12790104;23;20010;-83
2021/12/10 19:20:07;;;;;;;;;;;;;;;;;;;;;
2021/12/10 19:26:27;;;;;;;22.10;12.00;;;;;;;0.04;100.00;96649.00;12606020;23;20062;-84
2021/12/10 19:43:50;;;;;;;19.77;12.35;;;;;;;0.05;100.00;96674.31;12718868;23;20013;-82
2021/12/10 19:49:47;;;;;;;19.33;11.80;;;;;;;0.02;100.00;96682.81;12767689;23;20020;-84
2021/12/10 19:55:56;;;;;;;22.92;12.45;;;;;;;-0.06;100.00;96686.91;12764477;23;20012;-84
2021/12/10 20:07:08;;;;;;;24.40;13.57;;;;;;;-0.19;100.00;96706.13;12780743;23;20017;-84
2021/12/10 20:12:27;;;;;;;26.90;14.52;;;;;;;-0.08;100.00;96715.44;12724947;23;20022;-82
2021/12/10 20:17:43;;;;;;;27.85;16.08;;;;;;;-0.07;100.00;96726.78;12753255;23;20013;-82
2021/12/10 20:22:51;;;;;;;27.42;15.45;;;;;;;-0.06;100.00;96730.97;12758115;23;20009;-80
2021/12/10 20:28:00;;;;;;;30.67;16.52;;;;;;;0.01;100.00;96735.88;12777557;23;20014;-81
2021/12/10 20:33:09;;;;;;;31.85;18.20;;;;;;;-0.09;100.00;96744.72;12784673;23;20025;-83
2021/12/10 20:38:22;;;;;;;32.65;17.15;;;;;;;-0.12;100.00;96759.28;12759333;23;20045;-83
2021/12/10 20:43:31;;;;;;;29.95;18.13;;;;;;;-0.15;100.00;96762.50;12724129;23;20035;-82
2021/12/10 20:48:39;;;;;;;31.40;18.55;;;;;;;-0.18;100.00;96771.00;12730597;23;20025;-83
2021/12/10 20:54:05;;;;;;;35.35;20.55;;;;;;;-0.22;100.00;96777.13;12767790;23;20117;-82
2021/12/10 20:59:31;;;;;;;32.92;18.58;;;;;;;-0.19;100.00;96779.97;12763649;23;20056;-83
2021/12/10 21:05:11;;;;;;;37.75;21.08;;;;;;;-0.22;100.00;96788.44;12758791;23;20040;-82
2021/12/10 21:11:29;;;;;;;43.58;22.88;;;;;;;-0.25;100.00;96794.31;12764861;23;20037;-83
2021/12/10 21:17:08;;;;;;;42.60;24.02;;;;;;;-0.23;100.00;96799.28;12765678;23;20032;-82
2021/12/10 21:22:49;;;;;;;42.30;24.08;;;;;;;-0.19;100.00;96810.81;12789321;23;20027;-85
2021/12/10 21:28:26;;;;;;;50.47;25.17;;;;;;;-0.12;100.00;96819.91;12786846;23;20022;-85
2021/12/10 21:33:45;;;;;;;42.95;24.90;;;;;;;-0.23;100.00;96823.03;12791235;23;20021;-83
2021/12/10 21:38:57;;;;;;;43.92;24.17;;;;;;;-0.17;100.00;96832.41;12844067;23;20040;-85
2021/12/10 21:44:13;;;;;;;46.80;26.10;;;;;;;-0.19;100.00;96842.44;12839291;23;20001;-83
2021/12/10 21:49:20;;;;;;;48.92;25.20;;;;;;;-0.21;100.00;96852.50;12822203;23;20069;-87
2021/12/10 21:54:37;;;;;;;43.92;24.77;;;;;;;-0.16;100.00;96863.00;12834553;23;20031;-82
2021/12/10 22:00:38;;;;;;;51.05;25.90;;;;;;;-0.18;100.00;96870.38;12843677;23;20044;-83
2021/12/10 22:05:43;;;;;;;51.50;26.42;;;;;;;-0.20;100.00;96886.50;12832689;23;20013;-83
2021/12/10 22:11:02;;;;;;;47.67;25.88;;;;;;;-0.16;100.00;96898.03;12850159;23;20001;-84
2021/12/10 22:16:25;;;;;;;52.55;28.25;;;;;;;-0.17;100.00;96901.75;12848659;23;20054;-85
2021/12/10 22:21:33;;;;;;;50.92;26.80;;;;;;;-0.15;100.00;96901.47;12824832;23;20017;-83
2021/12/10 22:26:47;;;;;;;56.33;28.60;;;;;;;-0.19;100.00;96918.91;12818024;23;20124;-84
2021/12/10 22:31:56;;;;;;;54.90;29.15;;;;;;;-0.18;100.00;96923.91;12828141;23;20024;-84
2021/12/10 22:37:10;;;;;;;48.78;25.70;;;;;;;-0.15;100.00;96931.25;12775065;23;20032;-81
2021/12/10 22:42:16;;;;;;;53.90;28.67;;;;;;;-0.23;100.00;96939.81;12823571;23;20020;-86
2021/12/10 22:47:49;;;;;;;55.95;28.40;;;;;;;-0.21;100.00;96947.41;12840060;23;20028;-81
2021/12/10 22:53:46;;;;;;;60.80;28.42;;;;;;;-0.24;100.00;96958.53;12780798;23;20024;-83
2021/12/10 22:58:53;;;;;;;59.08;29.52;;;;;;;-0.19;100.00;96975.06;12810366;23;20032;-82
2021/12/10 23:04:27;;;;;;;57.38;29.52;;;;;;;-0.21;100.00;96979.06;12822004;23;20075;-85
2021/12/10 23:10:03;;;;;;;59.30;28.45;;;;;;;-0.18;100.00;96991.66;12828901;23;20033;-82
2021/12/10 23:15:44;;;;;;;64.90;31.20;;;;;;;-0.21;100.00;96998.31;12806954;23;20021;-81
2021/12/10 23:21:20;;;;;;;54.22;27.83;;;;;;;-0.11;100.00;97007.91;12642484;23;20160;-85
2021/12/10 23:26:58;;;;;;;63.88;30.48;;;;;;;-0.06;100.00;97011.28;12688277;23;20017;-84
2021/12/10 23:32:59;;;;;;;60.63;30.35;;;;;;;-0.08;100.00;97023.19;12808503;23;20033;-81
2021/12/10 23:38:27;;;;;;;60.30;29.55;;;;;;;-0.08;100.00;97023.97;12817056;23;20013;-84
2021/12/10 23:44:01;;;;;;;;;;;;;;;-0.09;100.00;97029.50;12819197;23;20134;-80
2021/12/10 23:49:13;;;;;;;63.80;29.35;;;;;;;-0.07;100.00;97033.47;12817296;23;20257;-84
2021/12/10 23:54:22;;;;;;;68.72;30.27;;;;;;;0.01;100.00;97034.69;12820315;23;20080;-81
2021/12/10 23:59:34;;;;;;;62.15;29.95;;;;;;;0.02;100.00;97046.00;12821531;23;20029;-82
